sensor_id;sensor_type;location;lat;lon;timestamp;temperature;humidity
53645;DHT22;39547;45.554;12.068;2022-11-15T00:05:06;10.80;90.20
53645;DHT22;39547;45.554;12.068;2022-11-15T00:11:26;10.70;90.10
53645;DHT22;39547;45.554;12.068;2022-11-15T00:17:49;10.70;90.10
53645;DHT22;39547;45.554;12.068;2022-11-15T00:24:09;10.60;90.20
53645;DHT22;39547;45.554;12.068;2022-11-15T00:30:29;10.60;90.10
53645;DHT22;39547;45.554;12.068;2022-11-15T00:36:49;10.50;90.00
53645;DHT22;39547;45.554;12.068;2022-11-15T00:43:10;10.50;90.10
53645;DHT22;39547;45.554;12.068;2022-11-15T00:49:30;10.40;90.10
53645;DHT22;39547;45.554;12.068;2022-11-15T00:55:50;10.40;90.00
53645;DHT22;39547;45.554;12.068;2022-11-15T01:02:10;10.30;89.80
53645;DHT22;39547;45.554;12.068;2022-11-15T01:08:30;10.20;89.80
53645;DHT22;39547;45.554;12.068;2022-11-15T01:14:50;10.20;89.90
53645;DHT22;39547;45.554;12.068;2022-11-15T01:21:13;10.10;90.00
53645;DHT22;39547;45.554;12.068;2022-11-15T01:27:33;10.10;90.00
53645;DHT22;39547;45.554;12.068;2022-11-15T01:33:53;10.10;90.00
53645;DHT22;39547;45.554;12.068;2022-11-15T01:40:13;10.00;89.90
53645;DHT22;39547;45.554;12.068;2022-11-15T01:46:35;10.00;89.70
53645;DHT22;39547;45.554;12.068;2022-11-15T01:52:55;9.90;89.80
53645;DHT22;39547;45.554;12.068;2022-11-15T01:59:15;9.80;89.80
53645;DHT22;39547;45.554;12.068;2022-11-15T02:05:36;9.70;89.90
53645;DHT22;39547;45.554;12.068;2022-11-15T02:11:56;9.70;90.00
53645;DHT22;39547;45.554;12.068;2022-11-15T02:18:34;9.70;89.70
53645;DHT22;39547;45.554;12.068;2022-11-15T02:32:19;9.60;89.80
53645;DHT22;39547;45.554;12.068;2022-11-15T02:45:27;9.50;89.90
53645;DHT22;39547;45.554;12.068;2022-11-15T02:51:49;9.50;90.10
53645;DHT22;39547;45.554;12.068;2022-11-15T03:11:26;9.40;89.90
53645;DHT22;39547;45.554;12.068;2022-11-15T03:18:19;9.30;89.80
53645;DHT22;39547;45.554;12.068;2022-11-15T03:24:43;9.40;89.80
53645;DHT22;39547;45.554;12.068;2022-11-15T03:31:05;9.30;89.80
53645;DHT22;39547;45.554;12.068;2022-11-15T03:38:06;9.20;89.50
53645;DHT22;39547;45.554;12.068;2022-11-15T03:44:50;9.10;89.60
53645;DHT22;39547;45.554;12.068;2022-11-15T03:51:11;9.10;89.70
53645;DHT22;39547;45.554;12.068;2022-11-15T03:57:31;9.00;89.50
53645;DHT22;39547;45.554;12.068;2022-11-15T04:03:52;8.90;89.60
53645;DHT22;39547;45.554;12.068;2022-11-15T04:10:12;8.90;89.60
53645;DHT22;39547;45.554;12.068;2022-11-15T04:16:33;8.90;89.60
53645;DHT22;39547;45.554;12.068;2022-11-15T04:22:54;8.90;89.80
53645;DHT22;39547;45.554;12.068;2022-11-15T04:29:34;8.90;89.60
53645;DHT22;39547;45.554;12.068;2022-11-15T04:35:53;8.90;89.70
53645;DHT22;39547;45.554;12.068;2022-11-15T04:42:32;8.80;89.30
53645;DHT22;39547;45.554;12.068;2022-11-15T04:48:52;8.70;89.20
53645;DHT22;39547;45.554;12.068;2022-11-15T04:55:13;8.70;89.60
53645;DHT22;39547;45.554;12.068;2022-11-15T05:01:33;8.70;89.50
53645;DHT22;39547;45.554;12.068;2022-11-15T05:07:53;8.60;89.40
53645;DHT22;39547;45.554;12.068;2022-11-15T05:14:13;8.60;89.70
53645;DHT22;39547;45.554;12.068;2022-11-15T05:20:33;8.60;89.60
53645;DHT22;39547;45.554;12.068;2022-11-15T05:26:55;8.50;89.30
53645;DHT22;39547;45.554;12.068;2022-11-15T05:33:14;8.50;89.50
53645;DHT22;39547;45.554;12.068;2022-11-15T05:39:34;8.50;89.40
53645;DHT22;39547;45.554;12.068;2022-11-15T05:45:54;8.40;89.50
53645;DHT22;39547;45.554;12.068;2022-11-15T05:52:16;8.40;89.50
53645;DHT22;39547;45.554;12.068;2022-11-15T05:58:37;8.40;89.00
53645;DHT22;39547;45.554;12.068;2022-11-15T06:04:57;8.30;89.10
53645;DHT22;39547;45.554;12.068;2022-11-15T06:11:17;8.20;89.10
53645;DHT22;39547;45.554;12.068;2022-11-15T06:17:37;8.20;89.10
53645;DHT22;39547;45.554;12.068;2022-11-15T06:23:57;8.10;89.10
53645;DHT22;39547;45.554;12.068;2022-11-15T06:30:17;8.10;89.00
53645;DHT22;39547;45.554;12.068;2022-11-15T06:36:55;8.10;88.90
53645;DHT22;39547;45.554;12.068;2022-11-15T06:43:15;8.00;88.00
53645;DHT22;39547;45.554;12.068;2022-11-15T06:49:35;7.70;87.60
53645;DHT22;39547;45.554;12.068;2022-11-15T06:56:05;7.70;88.80
53645;DHT22;39547;45.554;12.068;2022-11-15T07:02:25;7.70;88.70
53645;DHT22;39547;45.554;12.068;2022-11-15T07:08:45;7.80;88.60
53645;DHT22;39547;45.554;12.068;2022-11-15T07:15:06;7.80;88.90
53645;DHT22;39547;45.554;12.068;2022-11-15T07:21:26;7.90;88.90
53645;DHT22;39547;45.554;12.068;2022-11-15T07:27:55;8.10;88.70
53645;DHT22;39547;45.554;12.068;2022-11-15T07:34:15;8.10;88.70
53645;DHT22;39547;45.554;12.068;2022-11-15T07:40:34;8.20;88.20
53645;DHT22;39547;45.554;12.068;2022-11-15T07:46:54;8.20;88.60
53645;DHT22;39547;45.554;12.068;2022-11-15T07:53:14;8.20;88.70
53645;DHT22;39547;45.554;12.068;2022-11-15T07:59:34;8.30;88.90
53645;DHT22;39547;45.554;12.068;2022-11-15T08:05:54;8.40;88.90
53645;DHT22;39547;45.554;12.068;2022-11-15T08:12:14;8.50;89.00
53645;DHT22;39547;45.554;12.068;2022-11-15T08:18:34;8.50;89.00
53645;DHT22;39547;45.554;12.068;2022-11-15T08:24:55;8.60;89.30
53645;DHT22;39547;45.554;12.068;2022-11-15T08:31:17;8.70;89.00
53645;DHT22;39547;45.554;12.068;2022-11-15T08:37:39;8.70;89.00
53645;DHT22;39547;45.554;12.068;2022-11-15T08:43:59;8.70;89.20
53645;DHT22;39547;45.554;12.068;2022-11-15T08:50:19;8.80;89.00
53645;DHT22;39547;45.554;12.068;2022-11-15T08:56:40;8.90;89.20
53645;DHT22;39547;45.554;12.068;2022-11-15T09:03:04;8.90;89.30
53645;DHT22;39547;45.554;12.068;2022-11-15T09:09:24;9.20;89.10
53645;DHT22;39547;45.554;12.068;2022-11-15T09:15:44;9.30;89.40
53645;DHT22;39547;45.554;12.068;2022-11-15T09:22:07;9.50;89.30
53645;DHT22;39547;45.554;12.068;2022-11-15T09:28:28;9.60;88.50
53645;DHT22;39547;45.554;12.068;2022-11-15T09:34:49;9.70;89.00
53645;DHT22;39547;45.554;12.068;2022-11-15T09:47:49;10.20;89.20
53645;DHT22;39547;45.554;12.068;2022-11-15T10:00:45;10.30;89.40
53645;DHT22;39547;45.554;12.068;2022-11-15T10:07:22;10.50;89.40
53645;DHT22;39547;45.554;12.068;2022-11-15T10:13:26;10.50;89.10
53645;DHT22;39547;45.554;12.068;2022-11-15T10:20:09;10.50;89.30
53645;DHT22;39547;45.554;12.068;2022-11-15T10:26:15;10.50;89.20
53645;DHT22;39547;45.554;12.068;2022-11-15T10:32:18;10.40;89.60
53645;DHT22;39547;45.554;12.068;2022-11-15T10:38:21;10.30;89.20
53645;DHT22;39547;45.554;12.068;2022-11-15T10:44:30;10.30;89.70
53645;DHT22;39547;45.554;12.068;2022-11-15T10:50:32;10.30;90.10
53645;DHT22;39547;45.554;12.068;2022-11-15T10:56:34;10.50;90.40
53645;DHT22;39547;45.554;12.068;2022-11-15T11:02:44;10.70;90.40
53645;DHT22;39547;45.554;12.068;2022-11-15T11:09:00;10.90;90.20
53645;DHT22;39547;45.554;12.068;2022-11-15T11:15:12;11.10;90.10
53645;DHT22;39547;45.554;12.068;2022-11-15T11:21:26;11.20;89.80
53645;DHT22;39547;45.554;12.068;2022-11-15T11:33:55;11.40;90.00
53645;DHT22;39547;45.554;12.068;2022-11-15T12:06:00;11.70;89.10
53645;DHT22;39547;45.554;12.068;2022-11-15T12:12:13;11.70;88.90
53645;DHT22;39547;45.554;12.068;2022-11-15T12:18:19;11.60;89.00
53645;DHT22;39547;45.554;12.068;2022-11-15T12:24:26;11.60;89.10
53645;DHT22;39547;45.554;12.068;2022-11-15T12:30:54;11.50;89.10
53645;DHT22;39547;45.554;12.068;2022-11-15T12:36:57;11.50;88.90
53645;DHT22;39547;45.554;12.068;2022-11-15T12:55:31;11.60;89.30
53645;DHT22;39547;45.554;12.068;2022-11-15T13:13:44;11.50;89.30
53645;DHT22;39547;45.554;12.068;2022-11-15T13:32:13;11.40;89.60
53645;DHT22;39547;45.554;12.068;2022-11-15T13:38:30;11.40;89.60
53645;DHT22;39547;45.554;12.068;2022-11-15T13:44:33;11.30;89.60
53645;DHT22;39547;45.554;12.068;2022-11-15T13:50:37;11.30;89.70
53645;DHT22;39547;45.554;12.068;2022-11-15T13:56:43;11.30;89.80
53645;DHT22;39547;45.554;12.068;2022-11-15T14:02:45;11.30;89.80
53645;DHT22;39547;45.554;12.068;2022-11-15T14:15:33;11.20;90.00
53645;DHT22;39547;45.554;12.068;2022-11-15T14:21:35;11.30;90.10
53645;DHT22;39547;45.554;12.068;2022-11-15T14:27:39;11.30;90.10
53645;DHT22;39547;45.554;12.068;2022-11-15T14:33:41;11.20;90.20
53645;DHT22;39547;45.554;12.068;2022-11-15T14:39:42;11.30;90.20
53645;DHT22;39547;45.554;12.068;2022-11-15T14:45:44;11.20;90.30
53645;DHT22;39547;45.554;12.068;2022-11-15T14:51:45;11.20;90.30
53645;DHT22;39547;45.554;12.068;2022-11-15T14:57:47;11.20;90.40
53645;DHT22;39547;45.554;12.068;2022-11-15T15:03:48;11.20;90.50
53645;DHT22;39547;45.554;12.068;2022-11-15T15:09:52;11.20;90.50
53645;DHT22;39547;45.554;12.068;2022-11-15T15:15:54;11.20;90.60
53645;DHT22;39547;45.554;12.068;2022-11-15T15:21:55;11.20;90.70
53645;DHT22;39547;45.554;12.068;2022-11-15T15:27:56;11.10;90.80
53645;DHT22;39547;45.554;12.068;2022-11-15T15:33:58;11.10;90.90
53645;DHT22;39547;45.554;12.068;2022-11-15T15:39:59;11.10;90.90
53645;DHT22;39547;45.554;12.068;2022-11-15T15:46:01;11.10;90.90
53645;DHT22;39547;45.554;12.068;2022-11-15T15:52:02;11.00;90.90
53645;DHT22;39547;45.554;12.068;2022-11-15T15:58:04;10.90;91.00
53645;DHT22;39547;45.554;12.068;2022-11-15T16:04:06;10.90;91.10
53645;DHT22;39547;45.554;12.068;2022-11-15T16:10:22;10.80;91.10
53645;DHT22;39547;45.554;12.068;2022-11-15T16:16:25;10.80;91.20
53645;DHT22;39547;45.554;12.068;2022-11-15T16:22:27;10.80;91.30
53645;DHT22;39547;45.554;12.068;2022-11-15T16:28:31;10.80;91.40
53645;DHT22;39547;45.554;12.068;2022-11-15T16:34:33;10.80;91.40
53645;DHT22;39547;45.554;12.068;2022-11-15T16:40:35;10.80;91.40
53645;DHT22;39547;45.554;12.068;2022-11-15T16:46:36;10.70;91.40
53645;DHT22;39547;45.554;12.068;2022-11-15T16:52:38;10.70;91.50
53645;DHT22;39547;45.554;12.068;2022-11-15T16:58:40;10.70;91.40
53645;DHT22;39547;45.554;12.068;2022-11-15T17:04:41;10.70;91.60
53645;DHT22;39547;45.554;12.068;2022-11-15T17:10:43;10.70;91.50
53645;DHT22;39547;45.554;12.068;2022-11-15T17:16:44;10.70;91.60
53645;DHT22;39547;45.554;12.068;2022-11-15T17:22:46;10.80;91.70
53645;DHT22;39547;45.554;12.068;2022-11-15T17:28:48;10.80;91.70
53645;DHT22;39547;45.554;12.068;2022-11-15T17:34:49;10.80;91.70
53645;DHT22;39547;45.554;12.068;2022-11-15T17:41:12;10.80;91.80
53645;DHT22;39547;45.554;12.068;2022-11-15T17:47:14;10.80;91.80
53645;DHT22;39547;45.554;12.068;2022-11-15T17:53:15;10.80;91.90
53645;DHT22;39547;45.554;12.068;2022-11-15T17:59:18;10.90;91.90
53645;DHT22;39547;45.554;12.068;2022-11-15T18:05:19;10.90;91.90
53645;DHT22;39547;45.554;12.068;2022-11-15T18:11:47;10.90;91.90
53645;DHT22;39547;45.554;12.068;2022-11-15T18:17:51;11.00;91.80
53645;DHT22;39547;45.554;12.068;2022-11-15T18:23:54;11.00;91.90
53645;DHT22;39547;45.554;12.068;2022-11-15T18:29:57;10.90;91.80
53645;DHT22;39547;45.554;12.068;2022-11-15T18:36:12;10.90;91.90
53645;DHT22;39547;45.554;12.068;2022-11-15T18:42:14;11.00;91.80
53645;DHT22;39547;45.554;12.068;2022-11-15T18:48:15;11.00;91.90
53645;DHT22;39547;45.554;12.068;2022-11-15T18:54:17;11.00;91.90
53645;DHT22;39547;45.554;12.068;2022-11-15T19:00:18;11.00;91.80
53645;DHT22;39547;45.554;12.068;2022-11-15T19:06:25;11.00;91.80
53645;DHT22;39547;45.554;12.068;2022-11-15T19:12:27;10.90;91.80
53645;DHT22;39547;45.554;12.068;2022-11-15T19:18:29;10.90;91.80
53645;DHT22;39547;45.554;12.068;2022-11-15T19:24:31;10.90;91.60
53645;DHT22;39547;45.554;12.068;2022-11-15T19:30:33;10.90;91.80
53645;DHT22;39547;45.554;12.068;2022-11-15T19:36:40;10.90;91.90
53645;DHT22;39547;45.554;12.068;2022-11-15T19:42:42;11.00;91.90
53645;DHT22;39547;45.554;12.068;2022-11-15T19:48:43;11.00;91.90
53645;DHT22;39547;45.554;12.068;2022-11-15T19:54:45;11.00;91.90
53645;DHT22;39547;45.554;12.068;2022-11-15T20:00:46;11.00;92.00
53645;DHT22;39547;45.554;12.068;2022-11-15T20:06:48;11.00;91.70
53645;DHT22;39547;45.554;12.068;2022-11-15T20:12:49;10.90;91.70
53645;DHT22;39547;45.554;12.068;2022-11-15T20:18:51;10.90;91.80
53645;DHT22;39547;45.554;12.068;2022-11-15T20:24:53;10.90;91.90
53645;DHT22;39547;45.554;12.068;2022-11-15T20:30:57;11.00;92.00
53645;DHT22;39547;45.554;12.068;2022-11-15T20:36:59;11.00;92.00
53645;DHT22;39547;45.554;12.068;2022-11-15T20:43:01;11.10;92.00
53645;DHT22;39547;45.554;12.068;2022-11-15T20:49:02;11.10;92.00
53645;DHT22;39547;45.554;12.068;2022-11-15T20:55:04;11.10;92.00
53645;DHT22;39547;45.554;12.068;2022-11-15T21:01:07;11.10;91.90
53645;DHT22;39547;45.554;12.068;2022-11-15T21:07:09;11.10;91.90
53645;DHT22;39547;45.554;12.068;2022-11-15T21:13:10;11.00;91.80
53645;DHT22;39547;45.554;12.068;2022-11-15T21:19:12;11.00;91.90
53645;DHT22;39547;45.554;12.068;2022-11-15T21:25:14;11.10;92.00
53645;DHT22;39547;45.554;12.068;2022-11-15T21:31:15;11.10;92.00
53645;DHT22;39547;45.554;12.068;2022-11-15T21:37:17;11.10;92.00
53645;DHT22;39547;45.554;12.068;2022-11-15T21:43:19;11.10;92.00
53645;DHT22;39547;45.554;12.068;2022-11-15T21:49:21;11.20;92.00
53645;DHT22;39547;45.554;12.068;2022-11-15T21:55:22;11.20;92.10
53645;DHT22;39547;45.554;12.068;2022-11-15T22:01:25;11.20;92.10
53645;DHT22;39547;45.554;12.068;2022-11-15T22:07:45;11.20;92.10
53645;DHT22;39547;45.554;12.068;2022-11-15T22:13:47;11.20;92.10
53645;DHT22;39547;45.554;12.068;2022-11-15T22:19:48;11.20;92.00
53645;DHT22;39547;45.554;12.068;2022-11-15T22:25:50;11.20;92.00
53645;DHT22;39547;45.554;12.068;2022-11-15T22:31:51;11.20;92.00
53645;DHT22;39547;45.554;12.068;2022-11-15T22:37:53;11.20;92.00
53645;DHT22;39547;45.554;12.068;2022-11-15T22:43:54;11.20;92.00
53645;DHT22;39547;45.554;12.068;2022-11-15T22:49:56;11.20;92.00
53645;DHT22;39547;45.554;12.068;2022-11-15T22:56:00;11.20;92.10
53645;DHT22;39547;45.554;12.068;2022-11-15T23:02:03;11.30;92.10
53645;DHT22;39547;45.554;12.068;2022-11-15T23:08:04;11.30;92.10
53645;DHT22;39547;45.554;12.068;2022-11-15T23:14:06;11.30;92.00
53645;DHT22;39547;45.554;12.068;2022-11-15T23:20:08;11.30;92.10
53645;DHT22;39547;45.554;12.068;2022-11-15T23:26:09;11.30;92.10
53645;DHT22;39547;45.554;12.068;2022-11-15T23:32:12;11.30;92.10
53645;DHT22;39547;45.554;12.068;2022-11-15T23:38:33;11.30;92.10
53645;DHT22;39547;45.554;12.068;2022-11-15T23:44:37;11.40;92.10
53645;DHT22;39547;45.554;12.068;2022-11-15T23:50:38;11.40;92.10
53645;DHT22;39547;45.554;12.068;2022-11-15T23:56:39;11.40;92.10
